Flight Track Log - Related Links

Times and Time Zones

All times are in EDT time to prevent confusion due to time zone crossing. See the DAL61 flight status page for this flight to view local times or setup timezone preferences in your user account.

Time Position Orientation Groundspeed Altitude Reporting Facility
EDT Latitude Longitude Course Direction KTS MPH feet Rate Location/Type
Sun 06:16:30 PM 40.8167 -73.9000 259° West 169 194 2,300  Level New York TRACON
Sun 06:17:30 PM 40.8667 -73.9333 333° Northwest 237 273 5,000 2,950 Climbing New York TRACON
Sun 06:18:30 PM 40.9333 -73.9833 330° Northwest 255 293 8,200 3,600 Climbing New York TRACON
Sun 06:19:00 PM 40.6759 -74.3447 258° West  Level FlightAware Approximate
Sun 06:19:30 PM 40.9333 -74.0667 270° West 254 292 12,200  Level New York TRACON
Sun 06:20:00 PM 40.6555 -74.4729 259° West  Level FlightAware Approximate
Sun 06:20:30 PM 40.9000 -74.1667 246° West 301 346 13,400  Level New York TRACON
Sun 06:21:00 PM 40.6357 -74.6013 259° West  Level FlightAware Approximate
Sun 06:22:29 PM 40.8172 -74.3714 242° Southwest 331 381 17,600  Level New York Center
Sun 06:23:29 PM 40.7742 -74.4814 243° Southwest 331 381 19,800 2,400 Climbing New York Center
Sun 06:24:29 PM 40.7333 -74.5858 243° Southwest 331 381 22,400 2,231 Climbing New York Center
Sun 06:25:30 PM 40.6900 -74.6983 243° Southwest 336 387 24,300 1,770 Climbing New York Center
Sun 06:26:31 PM 40.6444 -74.8133 242° Southwest 342 394 26,000 1,587 Climbing New York Center
Sun 06:27:31 PM 40.5986 -74.9311 243° Southwest 349 402 27,500 1,488 Climbing New York Center
Sun 06:28:32 PM 40.5531 -75.0431 242° Southwest 355 409 29,000 1,627 Climbing New York Center
Sun 06:29:29 PM 40.4889 -75.1481 231° Southwest 362 417 30,700 1,475 Climbing New York Center
Sun 06:30:30 PM 40.4225 -75.2475 229° Southwest 367 422 31,900 1,033 Climbing New York Center
Sun 06:31:31 PM 40.3561 -75.3494 230° Southwest 373 429 32,800 992 Climbing New York Center
Sun 06:32:31 PM 40.2914 -75.4567 232° Southwest 378 435 33,900 1,160 Climbing New York Center
Sun 06:33:30 PM 40.2225 -75.5608 229° Southwest 384 442 35,100 1,109 Climbing New York Center
Sun 06:34:30 PM 40.1447 -75.6778 229° Southwest 393 452 36,100 992 Climbing New York Center
Sun 06:35:31 PM 40.0758 -75.7839 230° Southwest 388 447 37,100 885 Climbing New York Center
Sun 06:36:32 PM 40.0044 -75.8900 229° Southwest 388 447 37,900 407 Climbing New York Center
Sun 06:37:29 PM 39.9353 -75.9933 229° Southwest 394 453 37,900  Level New York Center
Sun 06:39:29 PM 39.7933 -76.2100 230° Southwest 392 451 37,900  Level Washington Center
Sun 06:40:30 PM 39.7156 -76.3144 226° Southwest 392 451 37,900  Level Washington Center
Sun 06:41:30 PM 39.6483 -76.4242 232° Southwest 397 457 37,900  Level Washington Center
Sun 06:42:28 PM 39.5872 -76.5069 226° Southwest 397 457 37,900  Level Washington Center
Sun 06:43:29 PM 39.5031 -76.6217 226° Southwest 397 457 37,900 50 Level Washington Center
Sun 06:44:29 PM 39.4333 -76.7281 230° Southwest 397 457 38,000 50 Climbing Washington Center
Sun 06:45:30 PM 39.3614 -76.8344 229° Southwest 397 457 38,000  Level Washington Center
Sun 06:46:30 PM 39.2894 -76.9378 228° Southwest 397 457 38,000 -51 Level Washington Center
Sun 06:47:27 PM 39.2172 -77.0408 228° Southwest 391 450 37,900  Descending Washington Center
Sun 06:48:28 PM 39.1453 -77.1467 229° Southwest 391 450 38,000  Climbing Washington Center
Sun 06:49:29 PM 39.0750 -77.2467 228° Southwest 386 444 37,900  Descending Washington Center
Sun 06:50:29 PM 39.0028 -77.3492 228° Southwest 386 444 38,000  Climbing Washington Center
Sun 06:51:30 PM 38.9325 -77.4517 229° Southwest 386 444 37,900  Descending Washington Center
Sun 06:52:28 PM 38.8619 -77.5539 228° Southwest 386 444 38,000 50 Climbing Washington Center
Sun 06:53:30 PM 38.7872 -77.6636 229° Southwest 381 438 38,000  Level Washington Center
Sun 06:54:27 PM 38.7189 -77.7550 226° Southwest 386 444 38,000  Level Washington Center
Sun 06:55:29 PM 38.6461 -77.8592 228° Southwest 381 438 38,000  Level Washington Center
Sun 06:56:29 PM 38.5836 -77.9633 233° Southwest 381 438 38,000  Level Washington Center
Sun 06:57:30 PM 38.5231 -78.0678 233° Southwest 376 433 38,000  Level Washington Center
Sun 06:58:27 PM 38.4625 -78.1717 233° Southwest 371 427 38,000  Level Washington Center
Sun 06:59:28 PM 38.3997 -78.2781 233° Southwest 376 433 38,000  Level Washington Center
Sun 07:00:29 PM 38.3411 -78.3792 234° Southwest 376 433 38,000  Level Washington Center
Sun 07:01:29 PM 38.2781 -78.4853 233° Southwest 376 433 38,000  Level Washington Center
Sun 07:02:30 PM 38.2192 -78.5889 234° Southwest 376 433 38,000  Level Washington Center
Sun 07:03:30 PM 38.1561 -78.6944 233° Southwest 376 433 38,000  Level Washington Center
Sun 07:04:28 PM 38.0928 -78.8000 233° Southwest 376 433 38,000  Level Washington Center
Sun 07:05:28 PM 38.0275 -78.9028 231° Southwest 381 438 38,000  Level Washington Center
Sun 07:06:29 PM 37.9728 -78.9978 234° Southwest 381 438 38,000  Level Washington Center
Sun 07:07:30 PM 37.9092 -79.1003 232° Southwest 376 433 38,000  Level Washington Center
Sun 07:08:30 PM 37.8394 -79.1994 228° Southwest 376 433 38,000  Level Washington Center
Sun 07:09:28 PM 37.7611 -79.3089 228° Southwest 381 438 38,000  Level Washington Center
Sun 07:10:29 PM 37.6981 -79.3922 226° Southwest 381 438 38,000  Level Washington Center
Sun 07:11:30 PM 37.6194 -79.5011 228° Southwest 381 438 38,000  Level Washington Center
Sun 07:12:27 PM 37.5561 -79.5869 227° Southwest 381 438 38,000  Level Washington Center
Sun 07:13:28 PM 37.4797 -79.6903 227° Southwest 381 438 38,000  Level Washington Center
Sun 07:15:34 PM 37.3369 -79.8836 227° Southwest 384 442 38,000  Level Atlanta Center
Sun 07:16:34 PM 37.2653 -79.9811 227° Southwest 384 442 38,000  Level Atlanta Center
Sun 07:17:34 PM 37.1894 -80.0842 227° Southwest 378 435 38,000  Level Atlanta Center
Sun 07:18:34 PM 37.1175 -80.1814 227° Southwest 378 435 38,000  Level Atlanta Center
Sun 07:19:34 PM 37.0472 -80.2733 226° Southwest 378 435 38,000  Level Atlanta Center
Sun 07:20:34 PM 36.9792 -80.3647 227° Southwest 378 435 38,000  Level Atlanta Center
Sun 07:21:34 PM 36.9169 -80.4483 227° Southwest 378 435 38,000 -50 Level Atlanta Center
Sun 07:22:34 PM 36.8469 -80.5447 228° Southwest 378 435 37,900  Descending Atlanta Center
Sun 07:23:34 PM 36.7786 -80.6333 226° Southwest 373 429 38,000 50 Climbing Atlanta Center
Sun 07:24:34 PM 36.7100 -80.7242 227° Southwest 366 421 38,000 -50 Level Atlanta Center
Sun 07:25:34 PM 36.6375 -80.8206 227° Southwest 373 429 37,900 -50 Descending Atlanta Center
Sun 07:26:34 PM 36.5669 -80.9139 227° Southwest 379 436 37,900 50 Level Atlanta Center
Sun 07:27:34 PM 36.4944 -81.0122 227° Southwest 379 436 38,000 50 Climbing Atlanta Center
Sun 07:28:34 PM 36.4236 -81.1050 227° Southwest 374 430 38,000  Level Atlanta Center
Sun 07:29:34 PM 36.3508 -81.2006 227° Southwest 381 438 38,000  Level Atlanta Center
Sun 07:30:34 PM 36.2800 -81.2931 226° Southwest 381 438 38,000 -500 Level Atlanta Center
Sun 07:32:34 PM 36.1319 -81.4886 227° Southwest 381 438 36,500 -700 Descending Atlanta Center
Sun 07:33:34 PM 36.0608 -81.5831 227° Southwest 381 438 35,900 -250 Descending Atlanta Center
Sun 07:34:34 PM 35.9875 -81.6778 226° Southwest 386 444 36,000  Climbing Atlanta Center
Sun 07:35:34 PM 35.9122 -81.7672 224° Southwest 381 438 35,900 -550 Descending Atlanta Center
Sun 07:36:34 PM 35.8367 -81.8589 225° Southwest 381 438 34,900 -450 Descending Atlanta Center
Sun 07:37:34 PM 35.7567 -81.9481 222° Southwest 386 444 35,000 50 Climbing Atlanta Center
Sun 07:38:34 PM 35.6811 -82.0369 224° Southwest 386 444 35,000  Level Atlanta Center
Sun 07:39:34 PM 35.6053 -82.1281 224° Southwest 386 444 35,000 -150 Level Atlanta Center
Sun 07:40:34 PM 35.5314 -82.2117 223° Southwest 380 437 34,700 -600 Descending Atlanta Center
Sun 07:41:34 PM 35.4597 -82.2972 224° Southwest 375 432 33,800 -1,150 Descending Atlanta Center
Sun 07:42:34 PM 35.3858 -82.3803 223° Southwest 364 419 32,400 -1,250 Descending Atlanta Center
Sun 07:43:34 PM 35.3139 -82.4633 223° Southwest 364 419 31,300 -1,100 Descending Atlanta Center
Sun 07:44:34 PM 35.2378 -82.5511 223° Southwest 369 425 30,200 -1,150 Descending Atlanta Center
Sun 07:45:34 PM 35.1636 -82.6339 222° Southwest 369 425 29,000 -1,800 Descending Atlanta Center
Sun 07:46:34 PM 35.0831 -82.7214 222° Southwest 375 432 26,600 -1,950 Descending Atlanta Center
Sun 07:47:34 PM 35.0028 -82.8167 224° Southwest 387 445 25,100 -1,400 Descending Atlanta Center
Sun 07:48:34 PM 34.9367 -82.8886 222° Southwest 397 457 23,800 -1,550 Descending Atlanta Center
Sun 07:49:34 PM 34.8417 -82.9986 224° Southwest 395 455 22,000 -900 Descending Atlanta Center
Sun 07:50:34 PM 34.7631 -83.0856 222° Southwest 395 455 22,000  Level Atlanta Center
Sun 07:51:34 PM 34.6825 -83.1775 223° Southwest 395 455 22,000  Level Atlanta Center
Sun 07:52:34 PM 34.6058 -83.2664 224° Southwest 395 455 22,000 -700 Level Atlanta Center
Sun 07:53:34 PM 34.5250 -83.3531 221° Southwest 395 455 20,600 -1,750 Descending Atlanta Center
Sun 07:54:34 PM 34.4481 -83.4417 224° Southwest 390 449 18,500 -1,750 Descending Atlanta Center
Sun 07:55:34 PM 34.3797 -83.5203 224° Southwest 390 449 17,100 -1,500 Descending Atlanta Center
Sun 07:56:34 PM 34.3028 -83.6039 222° Southwest 384 442 15,500 -1,800 Descending Atlanta Center
Sun 07:57:34 PM 34.2300 -83.6869 223° Southwest 369 425 13,500 -1,750 Descending Atlanta Center
Sun 07:58:34 PM 34.1592 -83.7678 223° Southwest 362 417 12,000 -750 Descending Atlanta Center
Sun 07:59:34 PM 34.0947 -83.8356 221° Southwest 331 381 12,000 -350 Level Atlanta Center
Sun 08:00:34 PM 34.0383 -83.8958 222° Southwest 285 328 11,300 -1,098 Descending Atlanta Center
Sun 08:00:56 PM 34.0167 -83.9167 219° Southwest 271 312 10,500 -951 Descending Atlanta TRACON
Sun 08:01:56 PM 33.9333 -83.9500 198° South 294 338 10,000 -750 Descending Atlanta TRACON
Sun 08:02:56 PM 33.8667 -83.9667 192° South 289 333 9,000 -918 Descending Atlanta TRACON
Sun 08:03:34 PM 33.8108 -83.9864 196° South 286 329 8,500 -857 Descending Atlanta Center
Sun 08:04:34 PM 33.7358 -84.0064 193° South 286 329 7,600 -800 Descending Atlanta Center
Sun 08:05:34 PM 33.6647 -84.0414 202° Southwest 281 323 6,900 -850 Descending Atlanta Center
Sun 08:06:34 PM 33.6294 -84.1136 240° Southwest 250 288 5,900 -1,084 Descending Atlanta Center
Sun 08:06:57 PM 33.6333 -84.1500 277° West 257 296 5,400 -1,301 Descending Atlanta TRACON
Sun 08:07:57 PM 33.6333 -84.2167 270° West 217 250 4,100 -1,150 Descending Atlanta TRACON
Sun 08:08:57 PM 33.6333 -84.2833 270° West 182 209 3,100 -1,000 Descending Atlanta TRACON

Login

Don't have an account? Register now (free) for customized features, flight alerts, and more!